Time;durP1;ratioP1;P1;durP2;ratioP2;P2;SDS_P1;SDS_P2;PMS_P1;PMS_P2;Temp;Humidity;BMP_temperature;BMP_pressure;BME280_temperature;BME280_humidity;BME280_pressure;Samples;Min_cycle;Max_cycle;Signal;HPM_P1;HPM_P2
2024/01/27 00:00:53;;;;;;;4.60;2.40;;;;;;;5.65;52.83;100208.03;4952461;29;20082;-37
2024/01/27 00:03:19;;;;;;;4.82;2.38;;;;;;;5.62;52.46;100207.50;4950022;29;20099;-39
2024/01/27 00:05:44;;;;;;;5.57;2.20;;;;;;;5.47;52.52;100212.56;4952494;29;20122;-39
2024/01/27 00:08:10;;;;;;;3.63;2.03;;;;;;;5.67;52.41;100213.13;4952173;29;20034;-40
2024/01/27 00:10:35;;;;;;;4.75;2.20;;;;;;;5.59;52.46;100223.66;4952520;29;20086;-38
2024/01/27 00:13:00;;;;;;;5.50;2.22;;;;;;;5.75;51.66;100229.00;4952328;29;20027;-39
2024/01/27 00:15:26;;;;;;;4.60;2.20;;;;;;;5.92;51.30;100226.41;4952091;29;20023;-40
2024/01/27 00:17:51;;;;;;;4.45;2.17;;;;;;;5.78;51.48;100206.72;4955216;28;20131;-36
2024/01/27 00:20:16;;;;;;;4.95;2.22;;;;;;;5.90;51.29;100239.75;4956397;29;20069;-26
2024/01/27 00:22:42;;;;;;;4.05;2.30;;;;;;;5.81;51.66;100246.84;4956434;29;20109;-26
2024/01/27 00:25:07;;;;;;;5.57;2.40;;;;;;;5.79;51.16;100243.53;4956155;29;20039;-28
2024/01/27 00:27:33;;;;;;;3.80;2.00;;;;;;;5.54;51.72;100244.41;4956328;29;20030;-26
2024/01/27 00:29:58;;;;;;;4.05;2.08;;;;;;;5.80;51.17;100239.91;4956322;29;20031;-26
2024/01/27 00:32:23;;;;;;;3.92;2.03;;;;;;;5.84;50.74;100241.22;4956146;29;20079;-27
2024/01/27 00:34:49;;;;;;;5.00;2.10;;;;;;;5.55;51.63;100233.72;4956262;29;20043;-26
2024/01/27 00:37:14;;;;;;;2.83;1.75;;;;;;;5.88;50.69;100228.53;4956403;29;20652;-27
2024/01/27 00:39:40;;;;;;;5.60;2.10;;;;;;;5.73;50.72;100216.94;4955982;29;20034;-25
2024/01/27 00:42:05;;;;;;;2.95;1.90;;;;;;;6.00;49.70;100224.66;4956060;29;20106;-26
2024/01/27 00:44:31;;;;;;;3.13;2.00;;;;;;;6.19;49.65;100226.16;4955902;29;20027;-25
2024/01/27 00:46:56;;;;;;;5.53;2.28;;;;;;;6.29;48.89;100217.25;4955486;29;20405;-26
2024/01/27 00:49:21;;;;;;;3.22;2.08;;;;;;;6.20;48.77;100217.22;4955908;29;20031;-26
2024/01/27 00:51:47;;;;;;;4.43;2.17;;;;;;;6.25;49.13;100219.41;4955894;29;20391;-25
2024/01/27 00:54:12;;;;;;;5.50;2.30;;;;;;;5.86;48.90;100215.50;4955554;29;20403;-26
2024/01/27 00:56:37;;;;;;;3.13;2.25;;;;;;;5.62;49.74;100208.31;4956273;29;20063;-26
2024/01/27 00:59:03;;;;;;;5.65;2.00;;;;;;;5.84;49.35;100198.97;4955618;29;20058;-26
2024/01/27 01:01:28;;;;;;;5.32;2.35;;;;;;;6.00;49.09;100214.06;4955680;29;20034;-26
2024/01/27 01:03:53;;;;;;;3.42;1.98;;;;;;;6.13;48.45;100204.84;4955751;29;20031;-39
2024/01/27 01:06:19;;;;;;;4.47;2.47;;;;;;;5.95;48.76;100192.59;4955417;29;20058;-39
2024/01/27 01:08:44;;;;;;;5.93;2.20;;;;;;;5.83;49.87;100185.94;4955323;29;20062;-38
2024/01/27 01:11:10;;;;;;;4.15;2.40;;;;;;;5.76;49.44;100183.09;4955614;29;20035;-40
2024/01/27 01:13:35;;;;;;;6.78;2.65;;;;;;;5.78;49.37;100175.03;4954942;29;20031;-40
2024/01/27 01:16:02;;;;;;;5.55;2.50;;;;;;;5.61;50.17;100171.53;4955057;29;20058;-39
2024/01/27 01:18:27;;;;;;;4.68;2.40;;;;;;;5.81;49.66;100162.31;4955243;29;20045;-40
2024/01/27 01:20:52;;;;;;;4.22;2.55;;;;;;;5.46;49.88;100156.31;4955302;29;20031;-39
2024/01/27 01:23:18;;;;;;;5.70;2.60;;;;;;;5.75;50.29;100157.72;4954785;29;20035;-40
2024/01/27 01:25:44;;;;;;;4.72;2.80;;;;;;;5.40;50.42;100154.28;4954745;29;20044;-40
2024/01/27 01:28:09;;;;;;;4.47;2.50;;;;;;;5.54;49.49;100152.88;4954070;28;20452;-40
2024/01/27 01:30:35;;;;;;;6.75;2.60;;;;;;;5.77;48.85;100154.88;4954899;29;20039;-38
2024/01/27 01:33:01;;;;;;;4.85;2.45;;;;;;;5.73;49.04;100148.28;4954828;29;20397;-39
2024/01/27 01:35:26;;;;;;;5.95;2.80;;;;;;;5.79;48.69;100148.47;4954751;29;20027;-39
2024/01/27 01:37:51;;;;;;;5.75;3.25;;;;;;;5.41;49.20;100147.22;4954993;29;20023;-39
2024/01/27 01:40:17;;;;;;;5.53;2.90;;;;;;;5.40;49.42;100143.72;4954784;29;20019;-40
2024/01/27 01:42:42;;;;;;;4.93;2.90;;;;;;;5.64;49.29;100148.25;4954788;29;20704;-40
2024/01/27 01:45:12;;;;;;;5.88;3.15;;;;;;;5.18;50.84;100145.16;4954685;29;20089;-39
2024/01/27 01:47:37;;;;;;;4.45;2.53;;;;;;;5.25;50.35;100150.59;4954636;29;20372;-37
2024/01/27 01:50:03;;;;;;;5.60;2.70;;;;;;;5.30;50.57;100143.03;4954527;29;20114;-27
2024/01/27 01:52:28;;;;;;;4.45;2.42;;;;;;;5.33;50.34;100147.16;4954514;29;20031;-27
2024/01/27 01:54:54;;;;;;;3.88;2.40;;;;;;;5.54;49.55;100144.94;4954632;29;20066;-27
2024/01/27 01:57:19;;;;;;;3.30;2.17;;;;;;;5.11;50.55;100146.75;4955033;29;20077;-27
2024/01/27 01:59:45;;;;;;;6.43;2.65;;;;;;;5.12;50.44;100121.19;4954501;29;20097;-27
2024/01/27 02:02:10;;;;;;;4.85;2.53;;;;;;;5.19;50.30;100127.50;4954849;29;20034;-27
2024/01/27 02:04:42;;;;;;;4.25;2.20;;;;;;;5.47;49.48;100117.53;4954215;29;20031;-26
2024/01/27 02:07:08;;;;;;;3.22;2.05;;;;;;;5.48;49.71;100117.38;4954554;29;20023;-26
2024/01/27 02:09:34;;;;;;;4.88;2.28;;;;;;;5.81;49.28;100121.91;4954182;29;20178;-27
2024/01/27 02:11:59;;;;;;;3.30;2.08;;;;;;;5.90;49.08;100125.34;4954440;29;20031;-27
2024/01/27 02:14:27;;;;;;;3.83;1.92;;;;;;;5.95;48.07;100134.47;4954341;29;20038;-27
2024/01/27 02:16:52;;;;;;;3.95;2.10;;;;;;;5.65;48.76;100142.00;4954411;29;20027;-27
2024/01/27 02:19:18;;;;;;;4.07;2.17;;;;;;;5.37;49.30;100144.06;4954380;29;20087;-27
2024/01/27 02:21:43;;;;;;;5.15;2.03;;;;;;;5.46;49.87;100129.91;4953695;29;20516;-26
2024/01/27 02:24:10;;;;;;;5.78;2.25;;;;;;;5.45;48.99;100140.63;4954133;29;20023;-26
2024/01/27 02:26:35;;;;;;;3.70;2.20;;;;;;;5.53;49.24;100142.47;4954302;29;20440;-27
2024/01/27 02:29:01;;;;;;;6.50;2.47;;;;;;;5.54;49.13;100141.47;4936500;29;20028;-27
2024/01/27 02:31:26;;;;;;;3.78;2.08;;;;;;;5.20;49.33;100129.97;4934933;29;20091;-36
2024/01/27 02:33:52;;;;;;;4.53;2.40;;;;;;;5.15;49.84;100134.09;4934711;29;20059;-39
2024/01/27 02:36:17;;;;;;;4.32;2.40;;;;;;;5.35;49.31;100140.75;4934831;29;20031;-39
2024/01/27 02:38:42;;;;;;;5.25;2.60;;;;;;;5.10;49.91;100142.44;4934818;29;20055;-39
2024/01/27 02:41:10;;;;;;;4.78;2.50;;;;;;;5.18;49.04;100137.22;4944685;29;20467;-40
2024/01/27 02:43:35;;;;;;;5.20;2.67;;;;;;;5.38;48.53;100131.69;4953493;29;20495;-40
2024/01/27 02:46:01;;;;;;;3.65;2.15;;;;;;;5.32;48.16;100140.25;4954108;29;20042;-40
2024/01/27 02:48:27;;;;;;;3.50;2.33;;;;;;;5.43;47.73;100130.22;4954237;29;20445;-39
2024/01/27 02:50:53;;;;;;;3.25;2.20;;;;;;;5.54;47.87;100128.25;4954103;29;20062;-40
2024/01/27 02:53:18;;;;;;;3.17;2.22;;;;;;;5.23;48.63;100121.72;4953506;29;20462;-39
2024/01/27 02:55:44;;;;;;;3.92;2.10;;;;;;;5.29;48.66;100110.56;4953327;29;20462;-39
2024/01/27 02:58:10;;;;;;;4.40;2.20;;;;;;;5.03;48.92;100107.97;4953696;29;20086;-37
2024/01/27 03:00:35;;;;;;;3.17;1.98;;;;;;;5.39;47.72;100120.16;4953657;29;20027;-39
2024/01/27 03:03:00;;;;;;;4.35;2.30;;;;;;;5.53;47.69;100118.69;4952906;29;20113;-39
2024/01/27 03:05:26;;;;;;;3.95;2.10;;;;;;;5.02;48.76;100119.50;4952584;29;20023;-38
2024/01/27 03:07:51;;;;;;;3.08;1.92;;;;;;;5.30;48.27;100119.28;4952336;29;20440;-39
2024/01/27 03:10:16;;;;;;;4.57;2.10;;;;;;;5.35;48.49;100111.72;4952783;29;20042;-39
2024/01/27 03:12:42;;;;;;;4.88;2.30;;;;;;;5.13;49.10;100107.84;4953206;29;20073;-39
2024/01/27 03:15:08;;;;;;;4.90;2.40;;;;;;;4.85;49.92;100102.78;4952060;29;20031;-38
2024/01/27 03:17:33;;;;;;;6.25;2.53;;;;;;;4.88;49.92;100101.66;4952793;29;20109;-41
2024/01/27 03:19:58;;;;;;;4.72;2.40;;;;;;;4.79;49.69;100097.31;4953232;29;20035;-39
2024/01/27 03:22:24;;;;;;;5.93;2.33;;;;;;;4.83;49.58;100102.09;4953215;29;20490;-37
2024/01/27 03:24:51;;;;;;;4.70;2.30;;;;;;;4.79;49.39;100106.03;4952986;29;20034;-39
2024/01/27 03:27:17;;;;;;;4.00;2.40;;;;;;;4.97;49.40;100105.97;4952811;29;20137;-38
2024/01/27 03:29:42;;;;;;;4.80;2.47;;;;;;;4.75;49.53;100104.72;4952830;29;20434;-39
2024/01/27 03:32:07;;;;;;;3.50;2.05;;;;;;;4.50;50.03;100104.56;4952825;29;20535;-36
2024/01/27 03:34:33;;;;;;;3.47;2.30;;;;;;;4.44;50.62;100099.09;4952810;29;20031;-38
2024/01/27 03:36:58;;;;;;;3.63;2.40;;;;;;;4.52;50.76;100104.41;4952748;29;20034;-39
2024/01/27 03:39:23;;;;;;;2.97;2.00;;;;;;;4.78;49.66;100100.91;4952717;29;20193;-26
2024/01/27 03:41:49;;;;;;;4.47;2.40;;;;;;;5.06;48.43;100099.75;4952976;29;20027;-26
2024/01/27 03:44:14;;;;;;;5.20;2.40;;;;;;;5.04;48.24;100083.22;4953016;29;20376;-26
2024/01/27 03:46:40;;;;;;;3.28;2.00;;;;;;;5.14;48.57;100077.00;4953064;29;20023;-26
2024/01/27 03:49:05;;;;;;;3.10;2.20;;;;;;;5.17;47.66;100084.63;4935714;29;20027;-26
2024/01/27 03:51:30;;;;;;;3.75;2.08;;;;;;;5.05;47.83;100077.00;4952314;28;20039;-26
2024/01/27 03:53:56;;;;;;;4.47;2.70;;;;;;;5.15;47.71;100081.31;4952471;29;20019;-26
2024/01/27 03:56:21;;;;;;;2.72;1.98;;;;;;;5.29;46.95;100070.97;4952522;29;20094;-26
2024/01/27 03:58:46;;;;;;;4.60;2.35;;;;;;;5.49;46.57;100065.41;4952764;29;20488;-26
2024/01/27 04:01:12;;;;;;;3.78;1.90;;;;;;;5.35;46.44;100071.28;4952785;29;20411;-26
2024/01/27 04:03:37;;;;;;;3.08;1.95;;;;;;;5.54;45.65;100063.09;4953160;29;20118;-26
2024/01/27 04:06:03;;;;;;;3.13;1.73;;;;;;;5.51;46.16;100068.69;4952772;29;20023;-26
2024/01/27 04:08:31;;;;;;;3.88;1.80;;;;;;;5.71;45.57;100056.00;4952877;29;20030;-26
2024/01/27 04:10:57;;;;;;;2.95;1.80;;;;;;;5.48;45.55;100050.53;4953090;29;20031;-27
2024/01/27 04:13:23;;;;;;;2.13;1.60;;;;;;;5.58;45.27;100053.03;4953493;29;20020;-26
2024/01/27 04:15:48;;;;;;;3.30;1.80;;;;;;;5.75;45.05;100059.13;4935913;29;20035;-27
2024/01/27 04:18:13;;;;;;;3.40;1.95;;;;;;;5.93;44.42;100040.50;4953412;29;20062;-40
2024/01/27 04:20:39;;;;;;;4.43;1.88;;;;;;;5.76;44.16;100043.13;4953168;29;20023;-39
2024/01/27 04:23:04;;;;;;;2.90;1.75;;;;;;;5.92;43.64;100052.03;4953577;29;20034;-39
2024/01/27 04:25:30;;;;;;;3.35;1.75;;;;;;;5.85;44.00;100039.50;4953364;29;20407;-39
2024/01/27 04:27:55;;;;;;;4.00;1.90;;;;;;;5.88;43.91;100040.97;4936222;29;20027;-38
2024/01/27 04:30:21;;;;;;;3.97;1.73;;;;;;;6.14;43.33;100050.59;4953374;29;20019;-41
2024/01/27 04:32:49;;;;;;;1.90;1.60;;;;;;;6.16;43.25;100038.03;4953346;29;20118;-27
2024/01/27 04:35:14;;;;;;;3.60;1.95;;;;;;;6.28;42.66;100051.72;4953102;29;20078;-28
2024/01/27 04:37:40;;;;;;;3.13;1.92;;;;;;;6.33;43.15;100054.69;4953562;29;20106;-28
2024/01/27 04:40:05;;;;;;;2.42;1.73;;;;;;;6.14;43.10;100040.84;4953493;29;20049;-27
2024/01/27 04:42:37;;;;;;;4.43;1.65;;;;;;;6.17;43.31;100039.66;4953367;29;20059;-27
2024/01/27 04:45:04;;;;;;;3.05;1.85;;;;;;;6.38;43.12;100033.88;4953086;29;20487;-27
2024/01/27 04:47:30;;;;;;;2.80;1.85;;;;;;;6.34;43.68;100037.81;4952979;29;20027;-27
2024/01/27 04:49:55;;;;;;;3.20;2.00;;;;;;;6.51;43.62;100038.59;4953052;29;20365;-26
2024/01/27 04:52:21;;;;;;;4.53;1.90;;;;;;;6.69;43.04;100038.41;4953040;29;20043;-38
2024/01/27 04:54:46;;;;;;;3.70;1.95;;;;;;;6.89;42.64;100034.34;4952488;29;20047;-40
2024/01/27 04:57:11;;;;;;;4.88;2.92;;;;;;;6.79;43.16;100034.53;4952690;29;20027;-40
2024/01/27 04:59:37;;;;;;;8.20;3.90;;;;;;;6.47;44.29;100032.84;4952984;29;20062;-40
2024/01/27 05:02:02;;;;;;;8.07;3.35;;;;;;;6.28;45.16;100031.38;4953044;29;20484;-40
2024/01/27 05:04:28;;;;;;;7.20;3.20;;;;;;;6.45;44.33;100029.53;4954833;28;20060;-40
2024/01/27 05:06:53;;;;;;;6.70;3.25;;;;;;;6.42;44.41;100024.59;4956522;29;20028;-38
2024/01/27 05:09:18;;;;;;;5.07;2.90;;;;;;;6.30;44.66;100018.00;4955954;29;20027;-40
2024/01/27 05:11:45;;;;;;;5.75;2.72;;;;;;;6.28;44.11;100028.75;4956425;29;20543;-40
2024/01/27 05:14:11;;;;;;;6.30;2.80;;;;;;;6.39;44.50;100022.28;4956311;29;20476;-40
2024/01/27 05:16:37;;;;;;;5.68;3.03;;;;;;;6.50;44.36;100026.41;4955963;29;20074;-40
2024/01/27 05:19:02;;;;;;;6.95;3.05;;;;;;;6.28;45.13;100027.94;4956106;29;20050;-37
2024/01/27 05:21:27;;;;;;;5.90;2.70;;;;;;;6.41;44.09;100033.53;4938955;29;20082;-40
2024/01/27 05:23:53;;;;;;;4.38;2.42;;;;;;;6.47;42.90;100024.91;4955830;29;20649;-40
2024/01/27 05:26:18;;;;;;;3.83;2.10;;;;;;;6.05;42.96;100021.53;4956029;29;20082;-39
2024/01/27 05:28:43;;;;;;;3.03;1.88;;;;;;;6.19;42.47;100033.25;4955391;29;20592;-39
2024/01/27 05:31:09;;;;;;;2.50;1.77;;;;;;;6.09;42.72;100026.47;4955094;29;20066;-38
2024/01/27 05:33:35;;;;;;;5.28;1.90;;;;;;;5.99;41.91;100042.50;4955193;29;20051;-40
2024/01/27 05:36:01;;;;;;;2.53;1.60;;;;;;;6.24;41.87;100030.94;4955251;29;20034;-40
2024/01/27 05:38:28;;;;;;;3.78;1.90;;;;;;;6.24;41.47;100043.28;4955108;29;20019;-40
2024/01/27 05:40:53;;;;;;;5.03;1.70;;;;;;;6.29;41.64;100042.81;4955534;29;20061;-39
2024/01/27 05:43:19;;;;;;;3.17;1.80;;;;;;;6.35;41.27;100044.78;4938129;29;20134;-40
2024/01/27 05:45:45;;;;;;;2.95;1.48;;;;;;;6.23;41.89;100053.06;4955692;29;20046;-39
2024/01/27 05:48:10;;;;;;;3.67;1.80;;;;;;;6.44;41.41;100047.22;4955572;29;20443;-38
2024/01/27 05:50:36;;;;;;;3.60;2.10;;;;;;;6.21;41.62;100041.81;4955781;29;20027;-39
2024/01/27 05:53:01;;;;;;;3.63;2.22;;;;;;;6.29;41.40;100033.06;4955608;29;20030;-39
2024/01/27 05:55:26;;;;;;;2.67;2.00;;;;;;;6.29;41.57;100046.28;4955424;29;20188;-40
2024/01/27 05:57:52;;;;;;;2.60;1.65;;;;;;;6.37;40.99;100050.72;4955495;29;20424;-40
2024/01/27 06:00:17;;;;;;;5.93;1.83;;;;;;;6.35;41.96;100058.81;4955746;29;20023;-40
2024/01/27 06:02:43;;;;;;;4.65;2.13;;;;;;;6.20;42.58;100049.91;4955721;29;20098;-39
2024/01/27 06:05:09;;;;;;;3.70;2.00;;;;;;;6.37;42.57;100056.00;4955176;29;20492;-40
2024/01/27 06:07:37;;;;;;;6.03;1.88;;;;;;;6.31;42.67;100052.22;4955085;29;20119;-40
2024/01/27 06:10:02;;;;;;;3.17;1.80;;;;;;;6.42;42.47;100043.94;4955736;29;20023;-39
2024/01/27 06:12:28;;;;;;;3.08;1.95;;;;;;;6.51;43.11;100043.91;4955122;29;20037;-39
2024/01/27 06:14:53;;;;;;;3.92;2.15;;;;;;;6.54;44.04;100054.97;4954712;28;20403;-40
2024/01/27 06:17:18;;;;;;;3.00;1.85;;;;;;;6.48;43.65;100045.06;4955493;29;20027;-39
2024/01/27 06:19:45;;;;;;;4.85;2.20;;;;;;;6.33;43.49;100055.50;4955418;29;20054;-40
2024/01/27 06:22:12;;;;;;;4.65;2.00;;;;;;;6.24;43.76;100049.44;4955348;29;20085;-40
2024/01/27 06:24:42;;;;;;;4.63;1.90;;;;;;;6.15;43.95;100054.88;4955105;29;20086;-40
2024/01/27 06:27:08;;;;;;;3.70;1.88;;;;;;;6.56;43.22;100054.81;4955104;29;20543;-39
2024/01/27 06:29:33;;;;;;;4.07;1.77;;;;;;;6.56;42.62;100060.91;4954934;29;20110;-39
2024/01/27 06:31:58;;;;;;;4.22;2.05;;;;;;;6.58;42.36;100058.91;4953221;29;20063;-27
2024/01/27 06:34:24;;;;;;;4.25;2.22;;;;;;;6.68;43.11;100064.00;4954433;29;20392;-26
2024/01/27 06:36:49;;;;;;;4.25;2.00;;;;;;;6.61;43.76;100066.53;4953892;29;20035;-26
2024/01/27 06:39:14;;;;;;;3.50;2.03;;;;;;;6.38;45.02;100055.03;4954481;29;20035;-27
2024/01/27 06:41:40;;;;;;;3.03;2.10;;;;;;;6.10;46.13;100065.94;4954242;29;20728;-30
2024/01/27 06:44:05;;;;;;;3.83;2.20;;;;;;;6.16;48.02;100065.28;4954330;29;20162;-25
2024/01/27 06:46:31;;;;;;;7.05;2.60;;;;;;;6.06;49.00;100065.47;4953632;29;20594;-26
2024/01/27 06:48:56;;;;;;;5.55;3.00;;;;;;;6.48;49.34;100068.06;4954297;29;20043;-27
2024/01/27 06:51:22;;;;;;;9.88;2.63;;;;;;;6.43;50.24;100065.91;4953864;29;20128;-26
2024/01/27 06:53:48;;;;;;;5.60;2.92;;;;;;;6.21;50.50;100068.25;4954083;29;20118;-27
2024/01/27 06:56:13;;;;;;;5.45;2.72;;;;;;;6.34;50.87;100054.53;4953916;29;20099;-26
2024/01/27 06:58:39;;;;;;;6.75;3.10;;;;;;;6.26;52.49;100054.53;4953683;29;20031;-26
2024/01/27 07:01:07;;;;;;;6.10;2.95;;;;;;;6.39;50.60;100056.66;4953785;29;20074;-26
2024/01/27 07:03:32;;;;;;;6.72;3.15;;;;;;;6.48;51.06;100052.19;4954074;29;20027;-28
2024/01/27 07:06:00;;;;;;;6.32;3.10;;;;;;;6.21;54.45;100043.66;4949863;29;20028;-27
2024/01/27 07:08:26;;;;;;;6.57;3.38;;;;;;;6.04;53.01;100048.13;4951941;29;20106;-26
2024/01/27 07:10:51;;;;;;;4.43;2.83;;;;;;;6.41;52.25;100057.31;4954072;29;20393;-26
2024/01/27 07:13:17;;;;;;;7.25;3.20;;;;;;;6.53;51.20;100048.03;4953011;29;20098;-26
2024/01/27 07:15:42;;;;;;;5.65;3.30;;;;;;;6.29;51.82;100050.75;4953513;29;20031;-27
2024/01/27 07:18:09;;;;;;;5.85;3.28;;;;;;;6.24;52.10;100051.22;4953379;29;20027;-26
2024/01/27 07:20:35;;;;;;;7.13;3.22;;;;;;;6.07;52.67;100055.69;4953476;29;20471;-25
2024/01/27 07:23:00;;;;;;;6.68;3.03;;;;;;;6.45;51.97;100048.03;4953378;29;20027;-25
2024/01/27 07:25:28;;;;;;;5.53;3.10;;;;;;;6.55;52.29;100047.84;4953252;29;20059;-26
2024/01/27 07:27:53;;;;;;;5.60;3.03;;;;;;;6.41;52.14;100055.47;4946215;29;20098;-27
2024/01/27 07:30:19;;;;;;;6.30;2.85;;;;;;;6.30;52.52;100055.03;4953550;29;20482;-26
2024/01/27 07:32:44;;;;;;;6.50;2.78;;;;;;;6.49;53.22;100056.47;4953238;29;20051;-27
2024/01/27 07:35:10;;;;;;;5.07;2.53;;;;;;;6.55;52.87;100063.72;4953695;29;20106;-27
2024/01/27 07:37:36;;;;;;;4.93;2.80;;;;;;;6.83;51.79;100072.91;4953588;29;20027;-27
2024/01/27 07:40:02;;;;;;;5.32;2.80;;;;;;;6.81;51.84;100074.06;4953523;29;20565;-27
2024/01/27 07:42:27;;;;;;;4.00;2.42;;;;;;;6.91;52.21;100064.13;4953496;29;20106;-27
2024/01/27 07:44:53;;;;;;;5.97;2.20;;;;;;;6.62;52.29;100073.44;4953259;29;20499;-27
2024/01/27 07:47:18;;;;;;;6.45;2.78;;;;;;;6.69;52.94;100062.22;4953313;29;20035;-28
2024/01/27 07:49:44;;;;;;;4.95;2.50;;;;;;;6.82;53.08;100067.78;4953524;29;20078;-28
2024/01/27 07:52:10;;;;;;;6.35;2.20;;;;;;;7.04;52.41;100058.25;4953482;29;20042;-28
2024/01/27 07:54:40;;;;;;;6.28;2.53;;;;;;;7.10;51.71;100052.28;4953587;29;20031;-27
2024/01/27 07:57:05;;;;;;;;;;;;;;;7.04;52.83;100045.00;4954014;29;20060;-28
2024/01/27 07:59:30;;;;;;;6.65;2.65;;;;;;;6.80;53.53;100045.97;4953393;29;19938;-27
2024/01/27 08:01:56;;;;;;;4.65;2.38;;;;;;;6.91;54.33;100034.16;4953188;29;20122;-27
2024/01/27 08:04:21;;;;;;;4.22;2.45;;;;;;;7.19;54.08;100026.59;4953051;29;20031;-26
2024/01/27 08:06:51;;;;;;;5.22;2.38;;;;;;;6.90;55.78;100014.00;4953093;29;20039;-27
2024/01/27 08:09:17;;;;;;;3.88;2.50;;;;;;;6.91;56.79;100007.72;4953214;29;20031;-26
2024/01/27 08:11:43;;;;;;;6.00;2.40;;;;;;;6.59;57.82;100002.41;4943876;29;20031;-26
2024/01/27 08:14:09;;;;;;;4.70;2.35;;;;;;;6.77;57.04;100001.34;4952472;29;20086;-26
2024/01/27 08:16:34;;;;;;;6.32;2.45;;;;;;;6.98;56.12;99985.66;4951721;29;20100;-27
2024/01/27 08:19:00;;;;;;;5.63;2.13;;;;;;;7.09;55.23;99975.72;4952334;29;20035;-27
2024/01/27 08:21:25;;;;;;;5.65;2.80;;;;;;;7.15;54.84;99962.59;4952629;29;20066;-28
2024/01/27 08:23:51;;;;;;;5.05;2.50;;;;;;;7.31;53.87;99955.53;4952827;29;20038;-29
2024/01/27 08:26:16;;;;;;;10.90;3.20;;;;;;;7.60;53.09;99936.28;4952235;29;20038;-27
2024/01/27 08:28:42;;;;;;;5.03;2.53;;;;;;;7.51;52.08;99962.00;4952753;29;20034;-27
2024/01/27 08:31:08;;;;;;;4.40;2.47;;;;;;;7.76;51.47;99959.13;4952664;29;20127;-27
2024/01/27 08:33:33;;;;;;;3.13;2.28;;;;;;;7.91;50.50;99973.22;4952255;29;20051;-27
2024/01/27 08:35:58;;;;;;;5.15;2.38;;;;;;;7.97;49.89;99972.50;4952841;29;20028;-29
2024/01/27 08:38:24;;;;;;;3.60;2.10;;;;;;;8.04;55.92;99975.25;4954986;28;20031;-27
2024/01/27 08:40:49;;;;;;;5.32;2.30;;;;;;;8.03;49.74;99982.41;4956486;29;20035;-27
2024/01/27 08:43:14;;;;;;;3.65;2.25;;;;;;;8.11;48.97;99992.09;4955023;29;20106;-27
2024/01/27 08:45:40;;;;;;;5.68;2.20;;;;;;;8.13;50.55;100000.69;4956180;29;20035;-27
2024/01/27 08:48:06;;;;;;;4.63;2.10;;;;;;;8.13;50.35;99992.72;4956670;29;20102;-27
2024/01/27 08:50:31;;;;;;;6.88;2.40;;;;;;;8.22;49.79;100001.41;4956891;29;20506;-27
2024/01/27 08:52:57;;;;;;;4.93;2.30;;;;;;;8.31;50.74;100012.75;4956622;29;20056;-27
2024/01/27 08:55:23;;;;;;;4.00;2.00;;;;;;;8.20;53.20;100021.97;4956922;29;20030;-27
2024/01/27 08:57:50;;;;;;;2.83;1.95;;;;;;;8.26;53.88;100018.59;4956755;29;20492;-28
2024/01/27 09:00:16;;;;;;;3.05;1.90;;;;;;;8.07;55.13;100035.03;4956754;29;20518;-26
2024/01/27 09:02:42;;;;;;;6.15;2.40;;;;;;;8.16;55.50;100026.81;4956255;29;20649;-27
2024/01/27 09:05:08;;;;;;;3.42;2.00;;;;;;;8.20;55.65;100040.53;4956234;29;20404;-27
2024/01/27 09:07:34;;;;;;;3.83;2.30;;;;;;;8.15;56.42;100027.84;4956143;29;20023;-27
2024/01/27 09:09:59;;;;;;;4.07;1.83;;;;;;;8.25;57.36;100040.84;4956102;29;20396;-26
2024/01/27 09:12:25;;;;;;;3.97;1.83;;;;;;;8.56;57.35;100043.34;4956400;29;20027;-27
2024/01/27 09:14:50;;;;;;;2.55;1.90;;;;;;;8.49;57.54;100045.09;4956337;29;20052;-26
2024/01/27 09:17:15;;;;;;;3.72;1.92;;;;;;;8.46;58.19;100048.09;4955186;29;20512;-28
2024/01/27 09:19:42;;;;;;;10.18;4.35;;;;;;;8.57;58.09;100034.38;4952797;29;20027;-27
2024/01/27 09:22:07;;;;;;;5.38;2.42;;;;;;;8.77;57.45;100039.13;4955748;29;20023;-26
2024/01/27 09:24:32;;;;;;;4.43;2.17;;;;;;;9.07;56.35;100049.72;4955096;29;20027;-27
2024/01/27 09:26:58;;;;;;;3.58;1.98;;;;;;;8.81;56.33;100040.41;4954475;29;20023;-27
2024/01/27 09:29:23;;;;;;;14.93;2.65;;;;;;;9.00;55.47;100055.78;4954387;29;20023;-27
2024/01/27 09:31:49;;;;;;;3.55;1.85;;;;;;;9.39;53.70;100043.13;4954619;29;20047;-29
2024/01/27 09:34:14;;;;;;;2.80;1.92;;;;;;;9.69;53.11;100050.97;4955032;29;20031;-28
2024/01/27 09:36:39;;;;;;;4.55;2.25;;;;;;;9.74;50.83;100037.94;4955053;29;20101;-28
2024/01/27 09:39:05;;;;;;;4.70;2.17;;;;;;;10.28;50.22;100052.47;4954711;29;20479;-27
2024/01/27 09:41:34;;;;;;;4.85;1.98;;;;;;;10.59;47.99;100030.00;4954586;29;20129;-28
2024/01/27 09:44:03;;;;;;;4.15;2.15;;;;;;;10.60;46.40;100013.81;4954607;29;20023;-26
2024/01/27 09:46:30;;;;;;;3.75;2.03;;;;;;;10.67;46.12;100032.50;4954557;29;20035;-28
2024/01/27 09:48:56;;;;;;;5.78;2.40;;;;;;;10.78;45.74;100015.16;4953943;28;20031;-28
2024/01/27 09:51:22;;;;;;;4.22;2.17;;;;;;;11.28;45.56;100010.41;4953839;29;20028;-27
2024/01/27 09:53:47;;;;;;;2.88;2.10;;;;;;;11.76;43.63;100012.09;4952719;29;20111;-28
2024/01/27 09:56:17;;;;;;;7.30;2.38;;;;;;;11.53;43.83;100021.31;4944126;29;20027;-28
2024/01/27 09:58:47;;;;;;;4.10;2.22;;;;;;;11.40;43.87;100011.44;4953843;29;20105;-27
2024/01/27 10:01:12;;;;;;;6.05;2.22;;;;;;;11.54;43.88;100012.31;4953796;29;20031;-28
2024/01/27 10:03:43;;;;;;;5.47;2.10;;;;;;;11.58;43.31;100004.72;4954334;29;20427;-28
2024/01/27 10:06:09;;;;;;;2.55;1.92;;;;;;;10.84;44.42;100009.03;4954001;29;20033;-28
2024/01/27 10:08:34;;;;;;;2.55;2.08;;;;;;;10.49;45.27;100022.34;4954266;29;20027;-26
2024/01/27 10:11:07;;;;;;;4.18;1.98;;;;;;;10.36;45.48;100010.63;4953757;29;20400;-28
2024/01/27 10:13:33;;;;;;;5.47;2.20;;;;;;;10.45;45.29;100006.00;4954282;29;20023;-27
2024/01/27 10:16:09;;;;;;;5.28;1.98;;;;;;;10.27;45.63;100013.63;4951617;29;20019;-27
2024/01/27 10:18:35;;;;;;;4.45;2.25;;;;;;;10.48;46.03;100026.88;4944325;29;20023;-27
2024/01/27 10:21:23;;;;;;;4.32;2.17;;;;;;;10.13;46.25;100021.50;4953896;29;20027;-27
2024/01/27 10:23:48;;;;;;;6.80;2.03;;;;;;;10.25;45.81;100029.75;4953649;29;20027;-28
2024/01/27 10:26:13;;;;;;;3.92;2.30;;;;;;;10.32;44.99;100027.19;4953550;29;20328;-28
2024/01/27 10:28:39;;;;;;;4.32;2.65;;;;;;;10.18;44.56;100023.56;4953246;29;20023;-28
2024/01/27 10:31:12;;;;;;;7.93;3.42;;;;;;;10.22;44.60;100016.84;4953733;29;20031;-27
2024/01/27 10:33:38;;;;;;;6.80;2.95;;;;;;;10.08;45.92;100023.09;4953042;29;20046;-28
2024/01/27 10:36:04;;;;;;;4.28;2.10;;;;;;;10.00;45.55;100023.25;4953888;29;20031;-27
2024/01/27 10:38:37;;;;;;;5.63;2.05;;;;;;;10.22;44.33;100010.72;4952217;29;20019;-28
2024/01/27 10:41:07;;;;;;;3.65;1.95;;;;;;;10.40;44.26;100013.72;4949299;29;20031;-27
2024/01/27 10:43:35;;;;;;;2.42;1.80;;;;;;;10.46;45.11;100028.91;4953577;29;20031;-27
2024/01/27 10:46:06;;;;;;;6.20;1.92;;;;;;;10.12;45.12;100011.88;4953496;29;20031;-28
2024/01/27 10:48:34;;;;;;;3.22;1.60;;;;;;;9.96;46.19;100026.28;4953494;29;20070;-27
2024/01/27 10:51:03;;;;;;;2.58;1.83;;;;;;;10.09;46.08;100016.75;4953475;29;20034;-27
2024/01/27 10:53:35;;;;;;;3.13;2.03;;;;;;;10.41;44.89;100033.16;4953170;29;20031;-27
2024/01/27 10:56:03;;;;;;;5.25;2.03;;;;;;;10.68;45.38;100013.69;4953323;29;20126;-28
2024/01/27 10:58:30;;;;;;;4.28;2.10;;;;;;;10.34;45.89;100030.47;4953548;29;20031;-27
2024/01/27 11:00:56;;;;;;;5.70;2.00;;;;;;;10.29;45.78;100022.22;4952835;28;20105;-26
2024/01/27 11:03:23;;;;;;;4.82;2.13;;;;;;;10.74;45.63;100026.19;4952741;29;20031;-28
2024/01/27 11:05:51;;;;;;;1.95;1.73;;;;;;;10.60;45.42;100034.31;4952731;29;20046;-28
2024/01/27 11:08:18;;;;;;;5.30;2.13;;;;;;;10.41;45.91;100009.22;4953170;29;20093;-28
2024/01/27 11:10:44;;;;;;;2.63;1.70;;;;;;;10.24;45.55;100003.34;4953080;29;20031;-28
2024/01/27 11:13:10;;;;;;;3.65;2.00;;;;;;;10.23;46.70;100007.84;4952759;29;20393;-27
2024/01/27 11:15:36;;;;;;;3.78;2.10;;;;;;;10.39;46.31;99998.78;4952321;29;20464;-26
2024/01/27 11:18:04;;;;;;;2.05;1.80;;;;;;;10.08;47.17;99999.97;4952954;29;20034;-28
2024/01/27 11:20:33;;;;;;;3.28;1.70;;;;;;;10.01;46.99;99998.28;4954174;29;20139;-28
2024/01/27 11:23:14;;;;;;;4.30;1.90;;;;;;;10.29;47.25;99996.44;4953751;29;20019;-27
2024/01/27 11:25:40;;;;;;;5.65;2.00;;;;;;;10.39;46.72;99990.78;4952429;29;20035;-28